Time;durP1;ratioP1;P1;durP2;ratioP2;P2;SDS_P1;SDS_P2;PMS_P1;PMS_P2;Temp;Humidity;BMP_temperature;BMP_pressure;BME280_temperature;BME280_humidity;BME280_pressure;Samples;Min_cycle;Max_cycle;Signal;HPM_P1;HPM_P2
2023/04/02 00:01:53;;;;;;;1.50;0.85;;;3.90;1.00;;;;;;5047218;28;20041;-87
2023/04/02 00:04:22;;;;;;;0.03;0.03;;;4.00;1.00;;;;;;5052652;28;20048;-87
2023/04/02 00:07:14;;;;;;;0.47;0.35;;;3.90;1.00;;;;;;5051325;28;20495;-87
2023/04/02 00:09:40;;;;;;;0.50;0.50;;;4.00;99.90;;;;;;5041814;28;20068;-86
2023/04/02 00:12:17;;;;;;;0.32;0.32;;;3.90;1.00;;;;;;5047865;28;20179;-87
2023/04/02 00:14:50;;;;;;;0.20;0.20;;;3.90;58.40;;;;;;5046113;28;20060;-87
2023/04/02 00:17:17;;;;;;;3.72;1.27;;;3.90;99.90;;;;;;5045705;28;20044;-87
2023/04/02 00:19:56;;;;;;;0.00;0.00;;;3.80;99.90;;;;;;5046312;28;20180;-87
2023/04/02 00:22:31;;;;;;;0.70;0.70;;;3.80;99.90;;;;;;5047140;28;20052;-87
2023/04/02 00:25:00;;;;;;;1.77;1.17;;;3.80;99.90;;;;;;5046082;28;20049;-87
2023/04/02 00:27:26;;;;;;;0.10;0.10;;;3.70;1.00;;;;;;5045433;28;20088;-87
2023/04/02 00:29:54;;;;;;;0.00;0.00;;;3.60;45.00;;;;;;5046998;28;20084;-87
2023/04/02 00:32:27;;;;;;;0.28;0.28;;;3.60;99.90;;;;;;5045222;28;20049;-87
2023/04/02 00:34:54;;;;;;;0.43;0.43;;;3.50;59.90;;;;;;5045492;28;20118;-87
2023/04/02 00:37:23;;;;;;;0.40;0.30;;;3.40;92.50;;;;;;5046917;28;20045;-87
2023/04/02 00:40:00;;;;;;;0.68;0.68;;;3.30;99.90;;;;;;5045992;28;20048;-87
2023/04/02 00:42:29;;;;;;;0.10;0.10;;;3.10;99.90;;;;;;5046821;28;20045;-87
2023/04/02 00:44:57;;;;;;;3.97;2.55;;;2.90;99.90;;;;;;5054447;28;20495;-87
2023/04/02 00:47:30;;;;;;;0.10;0.10;;;2.80;99.90;;;;;;5067152;28;20055;-87
2023/04/02 00:50:18;;;;;;;0.00;0.00;;;2.60;99.90;;;;;;5065383;28;20055;-87
2023/04/02 00:52:46;;;;;;;0.10;0.10;;;2.50;99.90;;;;;;5062928;28;20048;-87
2023/04/02 00:55:29;;;;;;;0.10;0.10;;;2.40;1.00;;;;;;5046603;28;20128;-87
2023/04/02 00:57:58;;;;;;;1.98;1.05;;;2.40;1.00;;;;;;5045293;28;20080;-87
2023/04/02 01:00:34;;;;;;;0.10;0.10;;;2.30;99.90;;;;;;5045557;28;20056;-87
2023/04/02 01:03:15;;;;;;;0.30;0.30;;;2.30;99.90;;;;;;5045230;28;20055;-87
2023/04/02 01:05:49;;;;;;;0.00;0.00;;;2.20;99.90;;;;;;5059392;28;20086;-87
2023/04/02 01:08:33;;;;;;;3.80;1.27;;;2.20;99.90;;;;;;5065014;28;20489;-87
2023/04/02 01:11:01;;;;;;;0.20;0.20;;;2.10;99.90;;;;;;5052039;28;20139;-87
2023/04/02 01:13:52;;;;;;;0.57;0.57;;;2.10;99.90;;;;;;5054343;28;20053;-87
2023/04/02 01:16:41;;;;;;;1.83;0.90;;;2.00;99.90;;;;;;5064531;28;20476;-87
2023/04/02 01:19:17;;;;;;;0.30;0.30;;;2.00;99.90;;;;;;5066512;28;20041;-87
2023/04/02 01:22:07;;;;;;;0.10;0.10;;;2.00;99.90;;;;;;5064823;28;20059;-87
2023/04/02 01:24:36;;;;;;;0.40;0.22;;;1.90;1.00;;;;;;5064754;28;20052;-87
2023/04/02 01:27:19;;;;;;;1.80;1.55;;;1.80;1.00;;;;;;5054970;28;20103;-87
2023/04/02 01:29:57;;;;;;;0.00;0.00;;;1.80;99.90;;;;;;5043470;28;20048;-87
2023/04/02 01:32:26;;;;;;;0.30;0.30;;;1.80;99.90;;;;;;5044885;28;20049;-87
2023/04/02 01:34:53;;;;;;;0.00;0.00;;;1.80;1.00;;;;;;5044814;28;20605;-87
2023/04/02 01:37:21;;;;;;;0.10;0.10;;;1.70;80.40;;;;;;5050414;28;20091;-87
2023/04/02 01:40:07;;;;;;;0.00;0.00;;;1.70;99.90;;;;;;5045069;28;20060;-87
2023/04/02 01:42:44;;;;;;;0.10;0.10;;;1.70;1.00;;;;;;5044620;28;20056;-87
2023/04/02 01:45:14;;;;;;;0.10;0.10;;;1.60;1.00;;;;;;5045075;28;20052;-87
2023/04/02 01:47:41;;;;;;;0.63;0.63;;;1.60;1.00;;;;;;5026492;28;20057;-87
2023/04/02 01:50:19;;;;;;;0.10;0.10;;;1.60;99.90;;;;;;5043717;28;20087;-87
2023/04/02 01:52:48;;;;;;;0.10;0.10;;;1.50;1.00;;;;;;5043283;28;20548;-87
2023/04/02 01:55:20;;;;;;;0.10;0.10;;;1.50;1.00;;;;;;5042981;28;20049;-87
2023/04/02 01:57:50;;;;;;;0.00;0.00;;;1.50;99.90;;;;;;5044475;28;20191;-87
2023/04/02 02:00:17;;;;;;;0.10;0.10;;;1.50;5.80;;;;;;5042702;28;20115;-87
2023/04/02 02:02:47;;;;;;;0.00;0.00;;;1.50;99.90;;;;;;5042567;28;20049;-87
2023/04/02 02:05:24;;;;;;;0.10;0.10;;;1.50;50.20;;;;;;5043317;28;20061;-87
2023/04/02 02:07:50;;;;;;;0.63;0.63;;;1.50;99.90;;;;;;5044171;28;20402;-87
2023/04/02 02:10:24;;;;;;;1.38;1.20;;;1.40;1.00;;;;;;5042929;28;20048;-87
2023/04/02 02:12:50;;;;;;;0.10;0.10;;;1.30;99.90;;;;;;5042776;28;20630;-87
2023/04/02 02:15:19;;;;;;;0.00;0.00;;;1.30;99.90;;;;;;5043232;28;20145;-87
2023/04/02 02:17:46;;;;;;;0.00;0.00;;;1.40;1.00;;;;;;5044205;28;20352;-87
2023/04/02 02:20:13;;;;;;;0.10;0.10;;;1.30;99.90;;;;;;5044710;28;20045;-89
2023/04/02 02:22:43;;;;;;;0.00;0.00;;;2.20;99.90;;;;;;5022801;28;20049;-89
2023/04/02 02:25:19;;;;;;;0.30;0.30;;;1.30;99.90;;;;;;5022557;28;20523;-87
2023/04/02 02:28:10;;;;;;;0.00;0.00;;;1.30;99.90;;;;;;5024195;28;20049;-86
2023/04/02 02:31:00;;;;;;;0.00;0.00;;;1.30;38.40;;;;;;5026547;28;20079;-89
2023/04/02 02:33:31;;;;;;;0.20;0.20;;;1.20;1.00;;;;;;5042915;28;20107;-89
2023/04/02 02:35:57;;;;;;;0.22;0.22;;;1.20;81.90;;;;;;5042316;28;20053;-89
2023/04/02 02:38:44;;;;;;;0.32;0.30;;;1.20;99.90;;;;;;5059824;28;20406;-89
2023/04/02 02:41:29;;;;;;;0.00;0.00;;;1.20;99.90;;;;;;5062605;28;20045;-89
2023/04/02 02:44:05;;;;;;;0.20;0.20;;;1.20;94.60;;;;;;5062216;28;20056;-89
2023/04/02 02:46:32;;;;;;;0.00;0.00;;;2.40;99.90;;;;;;5063508;28;20048;-89
2023/04/02 02:49:00;;;;;;;0.00;0.00;;;1.10;1.00;;;;;;5041777;28;20060;-89
2023/04/02 02:51:38;;;;;;;0.00;0.00;;;1.10;18.00;;;;;;5042272;28;20142;-89
2023/04/02 02:54:05;;;;;;;0.05;0.05;;;1.10;99.90;;;;;;5042057;28;20048;-88
2023/04/02 02:56:36;;;;;;;0.20;0.20;;;1.10;99.90;;;;;;5042425;28;20053;-86
2023/04/02 02:59:06;;;;;;;0.10;0.10;;;0.90;99.90;;;;;;5046172;28;20049;-89
2023/04/02 03:01:32;;;;;;;0.00;0.00;;;0.90;91.40;;;;;;5063804;28;20067;-88
2023/04/02 03:03:59;;;;;;;0.00;0.00;;;0.90;92.20;;;;;;5065895;28;20044;-89
2023/04/02 03:06:25;;;;;;;0.00;0.00;;;0.90;99.90;;;;;;5067723;28;20056;-88
2023/04/02 03:09:26;;;;;;;0.10;0.10;;;0.90;96.90;;;;;;5061137;28;20102;-88
2023/04/02 03:12:11;;;;;;;0.00;0.00;;;0.90;99.90;;;;;;5056129;28;20048;-88
2023/04/02 03:14:59;;;;;;;1.75;1.65;;;0.80;99.90;;;;;;5047717;28;20056;-88
2023/04/02 03:17:47;;;;;;;0.00;0.00;;;0.80;99.90;;;;;;5045495;28;20053;-89
2023/04/02 03:20:25;;;;;;;3.30;2.00;;;0.80;3.40;;;;;;5047455;28;20049;-89
2023/04/02 03:23:20;;;;;;;0.00;0.00;;;0.90;99.90;;;;;;5050222;28;20037;-88
2023/04/02 03:25:59;;;;;;;0.00;0.00;;;0.80;1.00;;;;;;5064103;28;20092;-89
2023/04/02 03:28:31;;;;;;;0.00;0.00;;;0.80;1.00;;;;;;5066738;28;20131;-88
2023/04/02 03:31:18;;;;;;;0.00;0.00;;;0.80;1.00;;;;;;5047593;28;20098;-89
2023/04/02 03:33:55;;;;;;;0.10;0.10;;;0.70;1.00;;;;;;5047001;28;20141;-89
2023/04/02 03:36:37;;;;;;;0.00;0.00;;;0.60;99.90;;;;;;5045312;28;20053;-88
2023/04/02 03:39:26;;;;;;;0.00;0.00;;;0.60;16.40;;;;;;5045521;28;20053;-89
2023/04/02 03:42:11;;;;;;;1.45;1.35;;;0.50;1.00;;;;;;5065060;28;20044;-88
2023/04/02 03:45:03;;;;;;;0.00;0.00;;;0.50;29.60;;;;;;5066672;28;20060;-88
2023/04/02 03:47:38;;;;;;;0.00;0.00;;;0.50;1.00;;;;;;5065820;28;20048;-88
2023/04/02 03:50:04;;;;;;;0.00;0.00;;;0.50;99.90;;;;;;5066272;28;20090;-89
2023/04/02 03:52:33;;;;;;;0.68;0.63;;;0.50;22.00;;;;;;5065420;28;20445;-89
2023/04/02 03:55:01;;;;;;;0.10;0.10;;;0.40;99.90;;;;;;5065399;28;20044;-89
2023/04/02 03:58:06;;;;;;;0.50;0.38;;;0.30;78.40;;;;;;5063745;28;20102;-89
2023/04/02 04:00:43;;;;;;;0.00;0.00;;;0.40;99.90;;;;;;5047580;28;20161;-89
2023/04/02 04:03:15;;;;;;;0.10;0.10;;;0.40;99.90;;;;;;5066857;28;20058;-88
2023/04/02 04:06:01;;;;;;;0.00;0.00;;;0.40;1.00;;;;;;5065830;28;20056;-87
2023/04/02 04:08:36;;;;;;;0.00;0.00;;;0.40;99.90;;;;;;5066092;28;20115;-87
2023/04/02 04:11:09;;;;;;;0.10;0.10;;;0.30;99.90;;;;;;5065409;28;20048;-87
2023/04/02 04:13:57;;;;;;;0.00;0.00;;;0.60;99.90;;;;;;5066180;28;20055;-87
2023/04/02 04:16:54;;;;;;;0.00;0.00;;;0.20;1.00;;;;;;5026699;28;20041;-87
2023/04/02 04:19:40;;;;;;;0.00;0.00;;;0.20;1.00;;;;;;5035302;28;20057;-86
2023/04/02 04:22:28;;;;;;;;;;;0.30;1.00;;;;;;5044606;28;20575;-87
2023/04/02 04:24:59;;;;;;;0.00;0.00;;;0.30;1.00;;;;;;5045344;28;19944;-87
2023/04/02 04:27:36;;;;;;;0.00;0.00;;;0.30;1.00;;;;;;5046204;28;20057;-87
2023/04/02 04:30:05;;;;;;;0.08;0.08;;;0.30;1.00;;;;;;5046808;28;20146;-87
2023/04/02 04:32:41;;;;;;;0.00;0.00;;;0.30;1.00;;;;;;5064979;28;20412;-87
2023/04/02 04:35:27;;;;;;;0.00;0.00;;;0.30;18.70;;;;;;5064705;28;20405;-87
2023/04/02 04:38:02;;;;;;;0.00;0.00;;;0.30;1.00;;;;;;5066077;28;20053;-87
2023/04/02 04:40:33;;;;;;;0.00;0.00;;;0.20;67.50;;;;;;5064248;28;20074;-87
2023/04/02 04:43:04;;;;;;;0.05;0.05;;;0.20;99.90;;;;;;5065747;28;20771;-86
2023/04/02 04:45:44;;;;;;;0.00;0.00;;;0.20;93.20;;;;;;5064196;28;20064;-87
2023/04/02 04:48:28;;;;;;;0.00;0.00;;;0.20;99.90;;;;;;5066035;28;20054;-87
2023/04/02 04:51:15;;;;;;;0.10;0.10;;;0.20;99.90;;;;;;5064959;28;20084;-86
2023/04/02 04:53:49;;;;;;;0.52;0.52;;;0.20;99.90;;;;;;5065292;28;20091;-86
2023/04/02 04:56:23;;;;;;;0.32;0.32;;;0.10;99.90;;;;;;5065742;28;20080;-86
2023/04/02 04:58:58;;;;;;;0.13;0.13;;;0.10;99.90;;;;;;5065653;28;20149;-87
2023/04/02 05:01:52;;;;;;;0.10;0.10;;;0.10;99.90;;;;;;5063718;28;20048;-87
2023/04/02 05:04:24;;;;;;;1.25;1.15;;;0.10;99.90;;;;;;5065298;28;20517;-87
2023/04/02 05:07:08;;;;;;;0.00;0.00;;;0.20;99.90;;;;;;5064909;28;20053;-86
2023/04/02 05:09:56;;;;;;;0.08;0.08;;;0.20;99.90;;;;;;5054988;28;20052;-87
2023/04/02 05:12:45;;;;;;;0.00;0.00;;;0.10;99.90;;;;;;5063907;28;20052;-87
2023/04/02 05:15:37;;;;;;;0.00;0.00;;;0.40;99.90;;;;;;5064240;28;20071;-87
2023/04/02 05:18:25;;;;;;;0.00;0.00;;;0.20;99.90;;;;;;5063402;28;20387;-87
2023/04/02 05:21:27;;;;;;;0.00;0.00;;;0.30;99.90;;;;;;5055964;28;20091;-87
2023/04/02 05:24:22;;;;;;;14.18;1.45;;;0.30;99.90;;;;;;5041904;28;20068;-87
2023/04/02 05:26:50;;;;;;;0.00;0.00;;;0.40;99.90;;;;;;5023518;28;20047;-87
2023/04/02 05:29:21;;;;;;;0.00;0.00;;;0.40;99.90;;;;;;5021588;28;20045;-87
2023/04/02 05:31:58;;;;;;;0.00;0.00;;;0.40;99.90;;;;;;5051693;28;20131;-87
2023/04/02 05:34:28;;;;;;;3.85;1.17;;;0.40;61.60;;;;;;5063683;28;20456;-87
2023/04/02 05:36:54;;;;;;;0.00;0.00;;;0.50;24.60;;;;;;5063321;28;20064;-87
2023/04/02 05:39:25;;;;;;;0.05;0.05;;;0.40;1.00;;;;;;5064705;28;20059;-87
2023/04/02 05:42:04;;;;;;;0.00;0.00;;;0.50;1.00;;;;;;5049463;28;20041;-87
2023/04/02 05:44:33;;;;;;;0.00;0.00;;;0.50;1.00;;;;;;5043202;28;20065;-87
2023/04/02 05:47:15;;;;;;;0.55;0.55;;;0.60;1.00;;;;;;5043200;28;20081;-87
2023/04/02 05:50:03;;;;;;;0.00;0.00;;;0.60;1.00;;;;;;5044733;28;20041;-87
2023/04/02 05:52:35;;;;;;;0.00;0.00;;;0.60;99.90;;;;;;5043218;28;20080;-87
2023/04/02 05:55:10;;;;;;;0.00;0.00;;;0.70;1.00;;;;;;5026382;28;20136;-88
2023/04/02 05:57:54;;;;;;;0.10;0.10;;;0.70;1.00;;;;;;5043974;28;20053;-87
2023/04/02 06:00:41;;;;;;;0.00;0.00;;;0.70;99.90;;;;;;5044645;28;20059;-87
2023/04/02 06:03:25;;;;;;;0.00;0.00;;;0.80;1.00;;;;;;5042991;28;20049;-87
2023/04/02 06:05:55;;;;;;;0.00;0.00;;;0.80;99.90;;;;;;5044201;28;20041;-88
2023/04/02 06:08:37;;;;;;;0.00;0.00;;;0.80;99.90;;;;;;5042149;28;20045;-87
2023/04/02 06:11:12;;;;;;;0.95;0.95;;;0.90;99.90;;;;;;5044711;28;20403;-88
2023/04/02 06:13:38;;;;;;;0.03;0.03;;;1.00;99.90;;;;;;5042831;28;20294;-87
2023/04/02 06:16:05;;;;;;;3.20;1.85;;;1.00;5.60;;;;;;5050858;28;20048;-88
2023/04/02 06:18:34;;;;;;;1.40;0.30;;;1.10;99.90;;;;;;5064193;28;20045;-88
2023/04/02 06:21:00;;;;;;;0.10;0.10;;;1.50;1.00;;;;;;5057402;28;20070;-87
2023/04/02 06:23:45;;;;;;;0.00;0.00;;;2.30;1.00;;;;;;5044184;28;20810;-88
2023/04/02 06:26:34;;;;;;;0.00;0.00;;;2.90;99.90;;;;;;5042762;28;20056;-87
2023/04/02 06:29:18;;;;;;;0.00;0.00;;;3.40;99.90;;;;;;5042307;28;20128;-88
2023/04/02 06:31:51;;;;;;;0.00;0.00;;;3.50;99.90;;;;;;5056128;28;20157;-88
2023/04/02 06:34:20;;;;;;;0.00;0.00;;;3.80;64.60;;;;;;5062565;28;20048;-88
2023/04/02 06:36:47;;;;;;;0.05;0.05;;;3.80;1.00;;;;;;5063939;28;20145;-87
2023/04/02 06:39:21;;;;;;;11.23;1.33;;;3.90;35.80;;;;;;5062355;28;20056;-88
2023/04/02 06:42:14;;;;;;;0.00;0.00;;;4.00;1.00;;;;;;5063591;28;20076;-87
2023/04/02 06:44:40;;;;;;;0.00;0.00;;;3.90;1.00;;;;;;5059174;28;20517;-87
2023/04/02 06:47:55;;;;;;;0.43;0.43;;;4.10;1.00;;;;;;5042024;28;20525;-87
2023/04/02 06:50:30;;;;;;;0.75;0.57;;;4.20;1.00;;;;;;5038482;28;20530;-88
2023/04/02 06:53:00;;;;;;;1.20;0.60;;;4.20;99.90;;;;;;5042474;28;20304;-87
2023/04/02 06:55:46;;;;;;;0.00;0.00;;;4.50;99.90;;;;;;5041840;28;20057;-87
2023/04/02 06:58:14;;;;;;;0.00;0.00;;;4.80;99.90;;;;;;5040317;28;20519;-87
2023/04/02 07:00:45;;;;;;;0.00;0.00;;;5.00;99.90;;;;;;5035154;28;20049;-87
2023/04/02 07:03:17;;;;;;;0.00;0.00;;;4.70;99.90;;;;;;5043612;28;20041;-87
2023/04/02 07:05:42;;;;;;;0.00;0.00;;;4.00;99.90;;;;;;5043410;28;20099;-88
2023/04/02 07:08:08;;;;;;;0.88;0.73;;;3.50;99.90;;;;;;5041383;28;20499;-87
2023/04/02 07:10:34;;;;;;;0.00;0.00;;;3.20;1.00;;;;;;5042441;28;20051;-87
2023/04/02 07:13:01;;;;;;;0.00;0.00;;;3.20;1.00;;;;;;5043604;28;20044;-87
2023/04/02 07:15:27;;;;;;;0.63;0.63;;;3.20;99.90;;;;;;5041897;28;20147;-87
2023/04/02 07:17:56;;;;;;;0.00;0.00;;;3.30;99.90;;;;;;5041744;28;20120;-87
2023/04/02 07:20:30;;;;;;;0.00;0.00;;;3.30;99.90;;;;;;5045296;28;20815;-87
2023/04/02 07:22:57;;;;;;;0.00;0.00;;;3.40;1.00;;;;;;5037703;28;20057;-87
2023/04/02 07:25:23;;;;;;;1.45;1.35;;;3.40;99.90;;;;;;5043027;28;20045;-87
2023/04/02 07:27:51;;;;;;;0.00;0.00;;;3.50;73.10;;;;;;5043110;28;20410;-88
2023/04/02 07:30:16;;;;;;;0.00;0.00;;;3.40;1.00;;;;;;5041771;28;20053;-88
2023/04/02 07:32:42;;;;;;;1.90;0.50;;;3.50;33.90;;;;;;5043463;28;20518;-87
2023/04/02 07:35:09;;;;;;;0.00;0.00;;;3.50;1.00;;;;;;5043151;28;20048;-87
2023/04/02 07:37:35;;;;;;;0.00;0.00;;;3.60;1.00;;;;;;5042869;28;20466;-87
2023/04/02 07:40:02;;;;;;;0.10;0.10;;;3.70;34.30;;;;;;5041828;28;20083;-87
2023/04/02 07:42:28;;;;;;;0.00;0.00;;;3.80;9.40;;;;;;5040546;28;20064;-87
2023/04/02 07:44:54;;;;;;;0.47;0.47;;;3.80;1.00;;;;;;5043094;28;20049;-87
2023/04/02 07:47:20;;;;;;;0.00;0.00;;;3.70;1.00;;;;;;5043538;28;20048;-87
2023/04/02 07:49:45;;;;;;;0.47;0.47;;;3.80;1.00;;;;;;5045561;28;20520;-87
2023/04/02 07:52:11;;;;;;;0.00;0.00;;;4.00;1.00;;;;;;5046476;28;20132;-87
2023/04/02 07:54:38;;;;;;;0.00;0.00;;;4.20;99.90;;;;;;5045141;28;20584;-87
2023/04/02 07:57:04;;;;;;;0.00;0.00;;;4.30;99.90;;;;;;5046616;28;20406;-87
2023/04/02 07:59:30;;;;;;;0.15;0.15;;;4.40;99.90;;;;;;5045382;28;20434;-87
2023/04/02 08:01:56;;;;;;;0.47;0.47;;;4.30;99.90;;;;;;5047030;28;20134;-87
2023/04/02 08:04:22;;;;;;;0.15;0.15;;;4.40;99.90;;;;;;5046165;28;20495;-86
2023/04/02 08:06:49;;;;;;;0.00;0.00;;;4.40;99.90;;;;;;5047267;28;20041;-86
2023/04/02 08:09:15;;;;;;;0.00;0.00;;;4.60;99.90;;;;;;5047528;28;20052;-87
2023/04/02 08:11:41;;;;;;;0.10;0.10;;;4.70;99.90;;;;;;5049161;28;20139;-86
2023/04/02 08:14:08;;;;;;;0.00;0.00;;;5.00;99.90;;;;;;5049019;28;20053;-86
2023/04/02 08:16:54;;;;;;;0.88;0.88;;;5.20;99.90;;;;;;5049414;28;20049;-86
2023/04/02 08:19:20;;;;;;;0.00;0.00;;;5.30;99.90;;;;;;5046490;28;20040;-86
2023/04/02 08:21:49;;;;;;;1.75;1.00;;;5.40;99.90;;;;;;5065454;28;20040;-87
2023/04/02 08:24:17;;;;;;;0.00;0.00;;;5.40;99.90;;;;;;5069385;28;20059;-86
2023/04/02 08:26:44;;;;;;;0.00;0.00;;;5.40;99.90;;;;;;5067796;28;20568;-86
2023/04/02 08:29:10;;;;;;;0.00;0.00;;;6.60;99.90;;;;;;5068317;28;20052;-86
2023/04/02 08:31:36;;;;;;;0.00;0.00;;;6.40;99.90;;;;;;5068092;28;20455;-86
2023/04/02 08:34:02;;;;;;;0.20;0.20;;;5.20;99.90;;;;;;5070200;28;20039;-86
2023/04/02 08:36:32;;;;;;;0.00;0.00;;;5.10;99.90;;;;;;5057984;28;20049;-86
2023/04/02 08:38:57;;;;;;;0.38;0.22;;;5.50;99.90;;;;;;5045328;28;20049;-86
2023/04/02 08:41:29;;;;;;;0.22;0.20;;;6.10;99.90;;;;;;5046286;28;20402;-86
2023/04/02 08:44:43;;;;;;;0.00;0.00;;;6.90;99.90;;;;;;5044209;28;20088;-87
2023/04/02 08:47:09;;;;;;;0.03;0.03;;;6.30;99.90;;;;;;5034763;28;20087;-87
2023/04/02 08:49:54;;;;;;;0.32;0.28;;;5.70;94.80;;;;;;5027978;28;20206;-85
2023/04/02 08:52:33;;;;;;;0.32;0.32;;;5.70;99.90;;;;;;5039674;28;20045;-85
2023/04/02 08:55:01;;;;;;;0.00;0.00;;;5.60;99.90;;;;;;5044790;28;20095;-85
2023/04/02 08:57:35;;;;;;;0.85;0.55;;;5.50;99.90;;;;;;5044820;28;20084;-85
2023/04/02 09:00:10;;;;;;;0.17;0.17;;;6.40;99.90;;;;;;5047659;28;20414;-86
2023/04/02 09:02:55;;;;;;;0.00;0.00;;;7.50;99.90;;;;;;5065007;28;20052;-85
2023/04/02 09:05:33;;;;;;;0.00;0.00;;;8.20;72.70;;;;;;5061798;28;20114;-85
2023/04/02 09:08:03;;;;;;;0.00;0.00;;;8.40;59.90;;;;;;5043386;28;20087;-85
2023/04/02 09:10:40;;;;;;;0.52;0.47;;;8.60;1.00;;;;;;5046049;28;20123;-86
2023/04/02 09:13:28;;;;;;;0.00;0.00;;;9.50;52.00;;;;;;5044595;28;20132;-86
2023/04/02 09:16:10;;;;;;;0.08;0.08;;;9.00;1.00;;;;;;5044820;28;20138;-85
2023/04/02 09:18:37;;;;;;;0.17;0.17;;;9.00;1.00;;;;;;5059919;28;20053;-87
2023/04/02 09:21:27;;;;;;;0.43;0.43;;;8.70;1.00;;;;;;5045417;28;20076;-86
2023/04/02 09:23:53;;;;;;;0.00;0.00;;;9.30;6.10;;;;;;5045097;28;20493;-87
2023/04/02 09:26:27;;;;;;;0.10;0.10;;;9.30;2.80;;;;;;5042918;28;20045;-87
2023/04/02 09:29:24;;;;;;;0.30;0.30;;;9.00;1.00;;;;;;5043341;28;20086;-87
2023/04/02 09:32:01;;;;;;;0.00;0.00;;;8.60;1.00;;;;;;5026240;28;20053;-87
2023/04/02 09:34:32;;;;;;;0.32;0.17;;;8.60;1.00;;;;;;5044083;28;20048;-87
2023/04/02 09:37:08;;;;;;;0.00;0.00;;;9.20;1.00;;;;;;5043953;28;20049;-86
2023/04/02 09:39:34;;;;;;;0.00;0.00;;;9.20;43.40;;;;;;5026175;28;20053;-86
2023/04/02 09:42:06;;;;;;;0.20;0.20;;;9.90;54.50;;;;;;5044133;28;20132;-86
2023/04/02 09:44:33;;;;;;;0.38;0.28;;;10.00;1.00;;;;;;5044259;28;20056;-86
2023/04/02 09:47:04;;;;;;;0.00;0.00;;;9.70;27.80;;;;;;5042920;28;20063;-86
2023/04/02 09:49:33;;;;;;;0.00;0.00;;;9.30;11.30;;;;;;5044179;28;20469;-86
2023/04/02 09:52:25;;;;;;;0.40;0.38;;;8.90;1.00;;;;;;5044323;28;20033;-86
2023/04/02 09:55:15;;;;;;;0.00;0.00;;;8.30;1.00;;;;;;5040296;28;20041;-86
2023/04/02 09:57:45;;;;;;;0.40;0.35;;;8.00;29.60;;;;;;5046476;28;20067;-84
2023/04/02 10:00:22;;;;;;;0.00;0.00;;;8.30;22.80;;;;;;5042377;28;20045;-86
2023/04/02 10:03:02;;;;;;;0.47;0.47;;;8.30;1.00;;;;;;5043742;28;20443;-86
2023/04/02 10:05:30;;;;;;;0.00;0.00;;;8.30;1.00;;;;;;5043664;28;20535;-86
2023/04/02 10:08:07;;;;;;;1.08;0.68;;;8.70;44.50;;;;;;5041039;28;20048;-87
2023/04/02 10:10:40;;;;;;;0.00;0.00;;;8.50;1.00;;;;;;5045859;28;20098;-86
2023/04/02 10:13:16;;;;;;;0.00;0.00;;;8.70;62.50;;;;;;5042489;28;20470;-86
2023/04/02 10:15:46;;;;;;;0.00;0.00;;;8.80;38.40;;;;;;5045353;28;20110;-86
2023/04/02 10:18:49;;;;;;;0.00;0.00;;;8.60;22.50;;;;;;5046625;28;20402;-85
2023/04/02 10:21:20;;;;;;;0.00;0.00;;;8.20;1.00;;;;;;5045523;28;20391;-86
2023/04/02 10:23:46;;;;;;;0.00;0.00;;;7.90;6.70;;;;;;5046862;28;20084;-82
2023/04/02 10:26:42;;;;;;;0.00;0.00;;;7.80;48.30;;;;;;5042493;28;20466;-87
2023/04/02 10:29:26;;;;;;;0.10;0.10;;;7.90;56.90;;;;;;5040624;28;20061;-87
2023/04/02 10:32:18;;;;;;;0.00;0.00;;;8.00;93.30;;;;;;5040992;28;20127;-87
2023/04/02 10:34:50;;;;;;;0.00;0.00;;;8.30;48.60;;;;;;5041143;28;20414;-87
2023/04/02 10:37:45;;;;;;;0.00;0.00;;;8.70;61.40;;;;;;5041882;28;20056;-88
2023/04/02 10:40:11;;;;;;;0.70;0.17;;;8.70;42.00;;;;;;5047992;28;20411;-87
2023/04/02 10:43:20;;;;;;;0.00;0.00;;;8.80;98.30;;;;;;5042822;28;20462;-87
2023/04/02 10:45:53;;;;;;;0.20;0.17;;;8.90;83.70;;;;;;5041781;28;20587;-88
2023/04/02 10:49:00;;;;;;;0.00;0.00;;;9.20;82.90;;;;;;5042681;28;20044;-88
2023/04/02 10:51:42;;;;;;;0.10;0.10;;;9.20;40.80;;;;;;5042465;28;20520;-88
2023/04/02 10:54:48;;;;;;;0.00;0.00;;;9.20;36.10;;;;;;5042484;28;20041;-87
2023/04/02 10:57:21;;;;;;;0.00;0.00;;;8.60;14.10;;;;;;5041995;28;20045;-87
2023/04/02 10:59:53;;;;;;;0.00;0.00;;;8.60;5.50;;;;;;5040901;28;20064;-87
2023/04/02 11:02:39;;;;;;;0.00;0.00;;;8.70;18.50;;;;;;5039885;28;20491;-87
2023/04/02 11:05:39;;;;;;;0.00;0.00;;;8.80;16.60;;;;;;5041594;28;20068;-88
2023/04/02 11:08:28;;;;;;;0.00;0.00;;;9.10;11.60;;;;;;5028578;28;20057;-88
2023/04/02 11:11:00;;;;;;;0.00;0.00;;;9.00;9.90;;;;;;5042250;28;20081;-88
2023/04/02 11:14:02;;;;;;;0.00;0.00;;;9.10;7.00;;;;;;5042181;28;20041;-84
2023/04/02 11:16:28;;;;;;;0.00;0.00;;;9.00;1.00;;;;;;5050571;28;20048;-84
2023/04/02 11:19:13;;;;;;;0.00;0.00;;;9.00;1.00;;;;;;5058087;28;20088;-87
2023/04/02 11:21:42;;;;;;;0.00;0.00;;;9.30;1.00;;;;;;5055775;28;20044;-87
2023/04/02 11:24:32;;;;;;;0.30;0.22;;;9.40;1.00;;;;;;5044246;28;20040;-86
2023/04/02 11:27:14;;;;;;;0.00;0.00;;;9.30;1.00;;;;;;5044392;28;20099;-87
2023/04/02 11:30:05;;;;;;;0.00;0.00;;;9.40;1.00;;;;;;5044799;28;20106;-87
2023/04/02 11:32:41;;;;;;;0.20;0.13;;;9.50;1.00;;;;;;5042790;28;20135;-87
2023/04/02 11:35:30;;;;;;;0.00;0.00;;;9.90;7.60;;;;;;5052939;28;20116;-87
2023/04/02 11:38:20;;;;;;;0.00;0.00;;;9.90;1.00;;;;;;5056722;28;20458;-87
2023/04/02 11:40:50;;;;;;;0.05;0.05;;;9.50;1.00;;;;;;5041979;28;20091;-87
2023/04/02 11:43:34;;;;;;;0.00;0.00;;;9.80;1.00;;;;;;5044511;28;20448;-87
2023/04/02 11:46:03;;;;;;;0.03;0.00;;;9.70;1.00;;;;;;5027887;28;20057;-87
2023/04/02 11:48:30;;;;;;;0.00;0.00;;;9.90;1.00;;;;;;5044612;28;20049;-87
2023/04/02 11:50:56;;;;;;;0.20;0.20;;;9.70;1.00;;;;;;5044396;28;20071;-87
2023/04/02 11:53:33;;;;;;;0.00;0.00;;;9.10;1.00;;;;;;5045606;28;20585;-87
2023/04/02 11:56:15;;;;;;;0.08;0.08;;;9.00;1.00;;;;;;5059046;28;20080;-86
2023/04/02 11:59:16;;;;;;;0.00;0.00;;;9.30;1.00;;;;;;5063877;28;20053;-87
2023/04/02 12:02:13;;;;;;;0.17;0.00;;;9.30;1.00;;;;;;5064915;28;20056;-86
2023/04/02 12:05:20;;;;;;;0.20;0.20;;;9.10;1.00;;;;;;5061057;28;20092;-87
2023/04/02 12:07:56;;;;;;;0.00;0.00;;;9.50;1.00;;;;;;5035522;28;20532;-87
2023/04/02 12:10:27;;;;;;;0.55;0.47;;;10.30;1.00;;;;;;5063087;28;20410;-87
2023/04/02 12:12:52;;;;;;;0.08;0.08;;;10.50;1.00;;;;;;5045757;28;20048;-86
2023/04/02 12:15:32;;;;;;;0.03;0.03;;;11.30;1.00;;;;;;5046017;28;20093;-86
2023/04/02 12:18:15;;;;;;;0.52;0.50;;;11.60;1.00;;;;;;5027395;28;20045;-87
2023/04/02 12:20:46;;;;;;;0.52;0.35;;;10.90;1.00;;;;;;5046005;28;20051;-87
2023/04/02 12:23:19;;;;;;;0.22;0.17;;;10.70;1.00;;;;;;5045278;28;20045;-86
2023/04/02 12:25:53;;;;;;;0.88;0.52;;;9.90;1.00;;;;;;5045549;28;20072;-87
2023/04/02 12:28:21;;;;;;;0.00;0.00;;;10.10;1.00;;;;;;5049687;28;20036;-87
2023/04/02 12:30:48;;;;;;;0.00;0.00;;;10.20;1.00;;;;;;5044345;28;20127;-87
2023/04/02 12:33:35;;;;;;;0.00;0.00;;;10.20;1.00;;;;;;5043974;28;20045;-86
2023/04/02 12:36:04;;;;;;;0.00;0.00;;;10.00;1.00;;;;;;5064489;28;20050;-87
2023/04/02 12:38:38;;;;;;;1.35;0.80;;;10.60;1.00;;;;;;5058690;28;20506;-87
2023/04/02 12:41:17;;;;;;;0.00;0.00;;;10.80;1.00;;;;;;5045782;28;20045;-87
2023/04/02 12:43:43;;;;;;;0.00;0.00;;;11.20;1.00;;;;;;5044914;28;20045;-87
2023/04/02 12:46:12;;;;;;;0.00;0.00;;;11.50;1.00;;;;;;5063749;28;20122;-87
2023/04/02 12:48:38;;;;;;;0.52;0.52;;;11.70;1.00;;;;;;5064627;28;20044;-87
2023/04/02 12:51:04;;;;;;;0.10;0.10;;;11.60;1.00;;;;;;5064987;28;20040;-87
2023/04/02 12:53:39;;;;;;;0.25;0.15;;;12.70;1.00;;;;;;5064767;28;20060;-87
2023/04/02 12:56:07;;;;;;;0.00;0.00;;;12.40;1.00;;;;;;5064132;28;20502;-87
2023/04/02 12:58:41;;;;;;;0.00;0.00;;;12.10;1.00;;;;;;5062376;28;20659;-87
2023/04/02 13:01:19;;;;;;;0.00;0.00;;;13.00;1.00;;;;;;5065192;28;20059;-87
2023/04/02 13:04:10;;;;;;;0.00;0.00;;;11.50;1.00;;;;;;5064578;28;20048;-87
2023/04/02 13:06:38;;;;;;;0.00;0.00;;;11.40;1.00;;;;;;5064305;28;20079;-87
2023/04/02 13:09:06;;;;;;;0.00;0.00;;;11.70;1.00;;;;;;5057353;28;20495;-87
2023/04/02 13:11:40;;;;;;;0.08;0.05;;;12.10;1.00;;;;;;5044919;28;20041;-87
2023/04/02 13:14:15;;;;;;;0.00;0.00;;;12.40;1.00;;;;;;5044995;28;20049;-87
2023/04/02 13:16:41;;;;;;;0.10;0.10;;;12.70;1.00;;;;;;5064535;28;20062;-87
2023/04/02 13:19:28;;;;;;;0.05;0.03;;;12.50;1.00;;;;;;5063497;28;20115;-87
2023/04/02 13:21:55;;;;;;;0.00;0.00;;;12.50;1.00;;;;;;5062708;28;20052;-87
2023/04/02 13:24:23;;;;;;;0.20;0.17;;;11.70;1.00;;;;;;5063411;28;20044;-87
2023/04/02 13:26:52;;;;;;;0.00;0.00;;;11.00;1.00;;;;;;5024231;28;20064;-87
2023/04/02 13:29:20;;;;;;;0.85;0.65;;;10.80;1.00;;;;;;5044401;28;20078;-87
2023/04/02 13:31:46;;;;;;;0.08;0.08;;;10.80;1.00;;;;;;5063823;28;20085;-87
2023/04/02 13:34:12;;;;;;;0.00;0.00;;;11.00;1.00;;;;;;5067868;28;20109;-87
2023/04/02 13:36:37;;;;;;;0.30;0.20;;;11.40;1.00;;;;;;5063766;28;20044;-87
2023/04/02 13:39:04;;;;;;;0.03;0.03;;;12.00;1.00;;;;;;5053761;28;20077;-87
2023/04/02 13:41:35;;;;;;;0.20;0.20;;;12.40;1.00;;;;;;5043255;28;20130;-87
2023/04/02 13:44:02;;;;;;;0.00;0.00;;;12.30;1.00;;;;;;5043523;28;20056;-87
2023/04/02 13:46:31;;;;;;;0.10;0.10;;;12.40;1.00;;;;;;5058287;28;20048;-87